Time;durP1;ratioP1;P1;durP2;ratioP2;P2;SDS_P1;SDS_P2;PMS_P1;PMS_P2;Temp;Humidity;BMP_temperature;BMP_pressure;BME280_temperature;BME280_humidity;BME280_pressure;Samples;Min_cycle;Max_cycle;Signal;HPM_P1;HPM_P2
2024/03/22 00:01:47;;;;;;;52.45;27.15;;;;;;;;;;5056314;28;20433;-75
2024/03/22 00:04:14;;;;;;;47.50;24.33;;;;;;;;;;5055827;28;20040;-76
2024/03/22 00:06:46;;;;;;;51.25;25.67;;;;;;;;;;5056450;28;20095;-75
2024/03/22 00:09:11;;;;;;;51.65;25.55;;;;;;;;;;5055683;28;20041;-76
2024/03/22 00:11:40;;;;;;;43.28;23.92;;;;;;;;;;5056270;28;20446;-75
2024/03/22 00:14:06;;;;;;;45.97;24.70;;;;;;;;;;5055771;28;20536;-74
2024/03/22 00:16:32;;;;;;;49.10;25.25;;;;;;;;;;5056001;28;20037;-74
2024/03/22 00:18:57;;;;;;;50.25;24.88;;;;;;;;;;5055880;28;20074;-75
2024/03/22 00:21:23;;;;;;;45.47;24.45;;;;;;;;;;5055619;28;20059;-75
2024/03/22 00:23:49;;;;;;;52.90;25.58;;;;;;;;;;5056073;28;20055;-72
2024/03/22 00:26:15;;;;;;;53.17;27.27;;;;;;;;;;5055073;28;20132;-75
2024/03/22 00:28:41;;;;;;;61.33;27.30;;;;;;;;;;5055924;28;20041;-76
2024/03/22 00:31:08;;;;;;;78.88;27.83;;;;;;;;;;5038876;28;20139;-74
2024/03/22 00:33:34;;;;;;;98.47;29.88;;;;;;;;;;5055634;28;20459;-75
2024/03/22 00:36:00;;;;;;;139.85;29.80;;;;;;;;;;5055735;28;20037;-75
2024/03/22 00:38:26;;;;;;;131.80;28.98;;;;;;;;;;5055083;28;20466;-74
2024/03/22 00:40:52;;;;;;;112.90;28.92;;;;;;;;;;5055625;28;20040;-77
2024/03/22 00:43:17;;;;;;;63.72;26.45;;;;;;;;;;5055246;28;20380;-75
2024/03/22 00:45:43;;;;;;;51.38;24.83;;;;;;;;;;5055235;28;20041;-75
2024/03/22 00:48:09;;;;;;;55.45;24.58;;;;;;;;;;5054792;28;20399;-76
2024/03/22 00:50:34;;;;;;;50.25;25.35;;;;;;;;;;5055543;28;20094;-75
2024/03/22 00:53:02;;;;;;;48.33;24.88;;;;;;;;;;5055617;28;20064;-75
2024/03/22 00:55:28;;;;;;;72.72;39.63;;;;;;;;;;5038712;28;20055;-76
2024/03/22 00:57:54;;;;;;;78.95;39.80;;;;;;;;;;5055571;28;20045;-75
2024/03/22 01:00:20;;;;;;;71.40;36.85;;;;;;;;;;5054943;28;20045;-75
2024/03/22 01:02:46;;;;;;;59.65;32.17;;;;;;;;;;5055428;28;20040;-76
2024/03/22 01:05:11;;;;;;;51.88;26.95;;;;;;;;;;5054839;28;20145;-76
2024/03/22 01:07:37;;;;;;;48.42;26.60;;;;;;;;;;5055188;28;20052;-74
2024/03/22 01:10:04;;;;;;;51.45;25.00;;;;;;;;;;5055204;28;20564;-73
2024/03/22 01:12:30;;;;;;;181.85;30.33;;;;;;;;;;5054885;28;20037;-72
2024/03/22 01:14:57;;;;;;;320.60;34.90;;;;;;;;;;5055037;28;20470;-72
2024/03/22 01:17:22;;;;;;;242.98;33.55;;;;;;;;;;5054772;28;20544;-75
2024/03/22 01:19:48;;;;;;;175.82;31.75;;;;;;;;;;5054945;28;20045;-74
2024/03/22 01:22:14;;;;;;;115.22;31.95;;;;;;;;;;5054670;28;20032;-75
2024/03/22 01:24:40;;;;;;;103.35;31.35;;;;;;;;;;5055225;28;20450;-75
2024/03/22 01:27:06;;;;;;;94.32;31.52;;;;;;;;;;5054300;28;20123;-75
2024/03/22 01:29:31;;;;;;;72.65;30.02;;;;;;;;;;5054988;28;20048;-75
2024/03/22 01:32:00;;;;;;;65.13;29.00;;;;;;;;;;5055162;28;20040;-75
2024/03/22 01:34:26;;;;;;;80.47;31.35;;;;;;;;;;5054485;28;20037;-75
2024/03/22 01:36:52;;;;;;;73.45;30.30;;;;;;;;;;5054898;28;20356;-76
2024/03/22 01:39:21;;;;;;;74.93;32.08;;;;;;;;;;5054471;28;20471;-76
2024/03/22 01:41:50;;;;;;;61.15;28.73;;;;;;;;;;5054912;28;20463;-75
2024/03/22 01:44:17;;;;;;;58.08;26.45;;;;;;;;;;5054370;28;20464;-75
2024/03/22 01:46:44;;;;;;;60.90;27.83;;;;;;;;;;5054765;28;20048;-73
2024/03/22 01:49:15;;;;;;;57.35;26.63;;;;;;;;;;5054600;28;20041;-74
2024/03/22 01:51:42;;;;;;;58.70;28.08;;;;;;;;;;5054988;28;20394;-74
2024/03/22 01:54:09;;;;;;;60.03;27.40;;;;;;;;;;5054369;28;20058;-73
2024/03/22 01:56:39;;;;;;;64.13;26.25;;;;;;;;;;5054867;28;20036;-74
2024/03/22 01:59:05;;;;;;;54.80;25.88;;;;;;;;;;5039623;28;20047;-73
2024/03/22 02:01:32;;;;;;;47.05;24.15;;;;;;;;;;5057917;28;20048;-74
2024/03/22 02:03:58;;;;;;;45.67;24.02;;;;;;;;;;5058451;28;20047;-73
2024/03/22 02:06:24;;;;;;;39.22;20.33;;;;;;;;;;5058164;28;20443;-73
2024/03/22 02:08:49;;;;;;;47.88;21.17;;;;;;;;;;5058577;28;20040;-73
2024/03/22 02:11:15;;;;;;;45.35;21.55;;;;;;;;;;5058086;28;20037;-73
2024/03/22 02:13:42;;;;;;;43.63;22.10;;;;;;;;;;5058401;28;20044;-74
2024/03/22 02:16:09;;;;;;;46.15;20.85;;;;;;;;;;5058096;28;20036;-74
2024/03/22 02:18:34;;;;;;;37.53;19.00;;;;;;;;;;5058327;28;20048;-73
2024/03/22 02:21:00;;;;;;;37.25;19.02;;;;;;;;;;5058115;28;20428;-74
2024/03/22 02:23:37;;;;;;;40.65;18.50;;;;;;;;;;5057988;28;20051;-73
2024/03/22 02:26:05;;;;;;;42.90;19.13;;;;;;;;;;5058037;28;20046;-74
2024/03/22 02:28:32;;;;;;;40.70;18.95;;;;;;;;;;5057895;28;20054;-73
2024/03/22 02:30:58;;;;;;;51.92;20.88;;;;;;;;;;5057795;28;20471;-73
2024/03/22 02:33:24;;;;;;;46.63;19.20;;;;;;;;;;5057779;28;20051;-74
2024/03/22 02:35:51;;;;;;;49.33;19.73;;;;;;;;;;5057879;28;20044;-73
2024/03/22 02:38:16;;;;;;;43.47;19.23;;;;;;;;;;5057378;28;20040;-74
2024/03/22 02:40:46;;;;;;;40.53;18.98;;;;;;;;;;5057973;28;20051;-73
2024/03/22 02:43:12;;;;;;;39.88;18.42;;;;;;;;;;5057230;28;20048;-73
2024/03/22 02:45:38;;;;;;;41.78;18.25;;;;;;;;;;5057699;28;20506;-75
2024/03/22 02:48:05;;;;;;;47.42;19.02;;;;;;;;;;5057608;28;20543;-73
2024/03/22 02:50:34;;;;;;;43.85;18.30;;;;;;;;;;5057694;28;20206;-74
2024/03/22 02:53:00;;;;;;;42.10;17.33;;;;;;;;;;5057597;28;20047;-75
2024/03/22 02:55:26;;;;;;;37.95;17.70;;;;;;;;;;5057271;28;20052;-74
2024/03/22 02:57:52;;;;;;;40.03;17.45;;;;;;;;;;5057556;28;20036;-75
2024/03/22 03:00:18;;;;;;;35.00;16.70;;;;;;;;;;5057134;28;20059;-74
2024/03/22 03:02:45;;;;;;;40.10;17.73;;;;;;;;;;5057650;28;20395;-75
2024/03/22 03:05:11;;;;;;;34.97;16.15;;;;;;;;;;5057219;28;20038;-75
2024/03/22 03:07:37;;;;;;;33.47;16.35;;;;;;;;;;5057464;28;20036;-74
2024/03/22 03:10:03;;;;;;;34.30;16.17;;;;;;;;;;5056952;28;20048;-74
2024/03/22 03:12:29;;;;;;;32.33;15.98;;;;;;;;;;5057228;28;20401;-75
2024/03/22 03:14:54;;;;;;;27.63;14.75;;;;;;;;;;5057383;28;20041;-75
2024/03/22 03:17:20;;;;;;;27.70;14.60;;;;;;;;;;5057090;28;20429;-74
2024/03/22 03:19:46;;;;;;;27.40;13.80;;;;;;;;;;5056954;28;20072;-75
2024/03/22 03:22:11;;;;;;;27.60;14.75;;;;;;;;;;5056737;28;20127;-75
2024/03/22 03:24:37;;;;;;;28.15;14.77;;;;;;;;;;5057354;28;20360;-74
2024/03/22 03:27:03;;;;;;;30.63;13.05;;;;;;;;;;5056700;28;20423;-74
2024/03/22 03:29:29;;;;;;;22.15;12.80;;;;;;;;;;5056960;28;20443;-74
2024/03/22 03:31:54;;;;;;;25.35;13.10;;;;;;;;;;5057007;28;20036;-74
2024/03/22 03:34:20;;;;;;;23.48;12.70;;;;;;;;;;5056419;28;20127;-74
2024/03/22 03:36:46;;;;;;;20.95;11.30;;;;;;;;;;5056906;28;20041;-74
2024/03/22 03:39:12;;;;;;;17.60;11.18;;;;;;;;;;5056246;28;20559;-75
2024/03/22 03:41:38;;;;;;;22.13;10.90;;;;;;;;;;5056833;28;20043;-74
2024/03/22 03:44:03;;;;;;;17.77;10.32;;;;;;;;;;5056881;28;20040;-74
2024/03/22 03:46:29;;;;;;;19.75;10.05;;;;;;;;;;5056367;28;20636;-74
2024/03/22 03:48:55;;;;;;;15.70;9.60;;;;;;;;;;5056776;28;20044;-74
2024/03/22 03:51:20;;;;;;;17.48;9.90;;;;;;;;;;5056157;28;20384;-74
2024/03/22 03:53:46;;;;;;;17.00;10.00;;;;;;;;;;5056456;28;20037;-74
2024/03/22 03:56:12;;;;;;;18.35;9.85;;;;;;;;;;5055990;28;20398;-75
2024/03/22 03:58:37;;;;;;;21.30;10.27;;;;;;;;;;5056557;28;20037;-74
2024/03/22 04:01:07;;;;;;;16.63;10.30;;;;;;;;;;5056436;28;20036;-74
2024/03/22 04:03:33;;;;;;;14.50;9.05;;;;;;;;;;5056257;28;20044;-75
2024/03/22 04:06:00;;;;;;;17.00;9.60;;;;;;;;;;5056572;28;20033;-74
2024/03/22 04:08:26;;;;;;;16.35;9.38;;;;;;;;;;5055779;28;20050;-74
2024/03/22 04:10:53;;;;;;;15.40;9.60;;;;;;;;;;5056407;28;20037;-74
2024/03/22 04:13:18;;;;;;;15.75;10.10;;;;;;;;;;5055789;28;20033;-74
2024/03/22 04:15:44;;;;;;;18.98;9.90;;;;;;;;;;5055939;28;20368;-74
2024/03/22 04:18:10;;;;;;;18.13;10.50;;;;;;;;;;5055737;28;20040;-74
2024/03/22 04:20:36;;;;;;;19.80;10.13;;;;;;;;;;5055468;28;20064;-74
2024/03/22 04:23:01;;;;;;;19.05;11.48;;;;;;;;;;5055369;28;20036;-74
2024/03/22 04:25:27;;;;;;;21.80;12.23;;;;;;;;;;5055710;28;20402;-75
2024/03/22 04:27:53;;;;;;;20.13;13.07;;;;;;;;;;5039179;28;20521;-75
2024/03/22 04:30:18;;;;;;;21.02;12.77;;;;;;;;;;5055535;28;20041;-74
2024/03/22 04:32:46;;;;;;;20.40;13.10;;;;;;;;;;5055870;28;20048;-74
2024/03/22 04:35:12;;;;;;;20.42;13.07;;;;;;;;;;5055299;28;20036;-74
2024/03/22 04:37:38;;;;;;;18.83;12.50;;;;;;;;;;5055857;28;20068;-74
2024/03/22 04:40:04;;;;;;;26.08;13.02;;;;;;;;;;5055793;28;20040;-74
2024/03/22 04:42:30;;;;;;;16.38;11.57;;;;;;;;;;5038735;28;20044;-74
2024/03/22 04:44:57;;;;;;;19.08;12.00;;;;;;;;;;5055623;28;20068;-74
2024/03/22 04:47:23;;;;;;;19.25;11.10;;;;;;;;;;5055285;28;20045;-74
2024/03/22 04:49:49;;;;;;;16.02;10.68;;;;;;;;;;5055748;28;20474;-74
2024/03/22 04:52:15;;;;;;;16.15;10.25;;;;;;;;;;5055078;28;20055;-75
2024/03/22 04:54:40;;;;;;;16.83;11.20;;;;;;;;;;5055542;28;20044;-74
2024/03/22 04:57:06;;;;;;;18.45;10.90;;;;;;;;;;5054783;28;20045;-74
2024/03/22 04:59:32;;;;;;;17.30;8.40;;;;;;;;;;5055374;28;20051;-75
2024/03/22 05:01:57;;;;;;;14.48;6.22;;;;;;;;;;5055541;28;20036;-75
2024/03/22 05:04:23;;;;;;;7.78;5.93;;;;;;;;;;5054837;28;20063;-75
2024/03/22 05:06:49;;;;;;;15.88;9.77;;;;;;;;;;5055355;28;20123;-75
2024/03/22 05:09:15;;;;;;;12.75;7.00;;;;;;;;;;5054769;28;20467;-76
2024/03/22 05:11:41;;;;;;;15.25;7.43;;;;;;;;;;5055171;28;20479;-75
2024/03/22 05:14:07;;;;;;;14.02;9.48;;;;;;;;;;5054725;28;20040;-76
2024/03/22 05:16:33;;;;;;;13.65;7.50;;;;;;;;;;5038649;28;20431;-76
2024/03/22 05:18:59;;;;;;;14.55;7.78;;;;;;;;;;5054959;28;20048;-75
2024/03/22 05:21:24;;;;;;;13.45;9.18;;;;;;;;;;5054918;28;20123;-76
2024/03/22 05:23:50;;;;;;;15.68;8.35;;;;;;;;;;5055063;28;20043;-75
2024/03/22 05:26:16;;;;;;;13.10;8.15;;;;;;;;;;5054489;28;20390;-75
2024/03/22 05:28:42;;;;;;;15.10;8.93;;;;;;;;;;5054954;28;20082;-76
2024/03/22 05:31:08;;;;;;;14.88;10.25;;;;;;;;;;5054678;28;20036;-75
2024/03/22 05:33:33;;;;;;;15.65;9.77;;;;;;;;;;5054529;28;20044;-76
2024/03/22 05:35:59;;;;;;;13.73;8.52;;;;;;;;;;5055014;28;20068;-76
2024/03/22 05:38:25;;;;;;;14.02;8.48;;;;;;;;;;5054443;28;20036;-75
2024/03/22 05:40:50;;;;;;;13.07;9.02;;;;;;;;;;5054884;28;20086;-75
2024/03/22 05:43:16;;;;;;;12.63;8.40;;;;;;;;;;5054124;28;20390;-76
2024/03/22 05:45:42;;;;;;;13.98;8.15;;;;;;;;;;5055089;28;20032;-76
2024/03/22 05:48:08;;;;;;;15.20;8.82;;;;;;;;;;5054564;28;20091;-75
2024/03/22 05:50:33;;;;;;;15.23;7.95;;;;;;;;;;5054081;28;20040;-75
2024/03/22 05:52:59;;;;;;;11.52;8.32;;;;;;;;;;5054768;28;20037;-74
2024/03/22 05:55:27;;;;;;;12.60;8.68;;;;;;;;;;5037746;28;20102;-75
2024/03/22 05:57:53;;;;;;;11.02;8.30;;;;;;;;;;5054838;28;20039;-74
2024/03/22 06:00:18;;;;;;;12.77;8.40;;;;;;;;;;5054074;28;20538;-75
2024/03/22 06:02:44;;;;;;;12.80;9.27;;;;;;;;;;5054691;28;20040;-75
2024/03/22 06:05:10;;;;;;;14.75;8.52;;;;;;;;;;5054060;28;20041;-74
2024/03/22 06:07:41;;;;;;;11.75;8.98;;;;;;;;;;5054018;28;20115;-74
2024/03/22 06:10:09;;;;;;;13.68;9.52;;;;;;;;;;5028948;28;20037;-73
2024/03/22 06:12:36;;;;;;;14.35;9.38;;;;;;;;;;5044289;28;20033;-77
2024/03/22 06:15:05;;;;;;;14.88;9.00;;;;;;;;;;5042831;28;20403;-74
2024/03/22 06:17:33;;;;;;;16.15;9.40;;;;;;;;;;5043685;28;20047;-73
2024/03/22 06:20:00;;;;;;;12.30;8.88;;;;;;;;;;5034149;28;20041;-73
2024/03/22 06:22:26;;;;;;;12.23;9.30;;;;;;;;;;5050968;28;20045;-73
2024/03/22 06:24:52;;;;;;;12.45;9.23;;;;;;;;;;5049754;28;20948;-73
2024/03/22 06:27:19;;;;;;;12.65;9.57;;;;;;;;;;5050379;28;20079;-73
2024/03/22 06:29:45;;;;;;;9.18;7.85;;;;;;;;;;5050775;28;20498;-73
2024/03/22 06:32:10;;;;;;;11.90;9.43;;;;;;;;;;5032129;28;20037;-73
2024/03/22 06:34:36;;;;;;;9.63;7.70;;;;;;;;;;5051053;28;20045;-73
2024/03/22 06:37:02;;;;;;;6.72;6.00;;;;;;;;;;5051094;28;20041;-73
2024/03/22 06:39:28;;;;;;;10.07;6.93;;;;;;;;;;5050727;28;20474;-73
2024/03/22 06:41:54;;;;;;;12.35;8.52;;;;;;;;;;5032274;28;20086;-74
2024/03/22 06:44:19;;;;;;;11.85;9.38;;;;;;;;;;5048923;28;20041;-74
2024/03/22 06:46:45;;;;;;;10.13;8.73;;;;;;;;;;5052288;28;20099;-74
2024/03/22 06:49:11;;;;;;;12.90;9.82;;;;;;;;;;5051808;28;20056;-72
2024/03/22 06:51:36;;;;;;;13.77;9.88;;;;;;;;;;5052175;28;20044;-74
2024/03/22 06:54:02;;;;;;;11.25;8.70;;;;;;;;;;5052015;28;20479;-74
2024/03/22 06:56:28;;;;;;;10.98;9.00;;;;;;;;;;5052879;28;20045;-73
2024/03/22 06:58:54;;;;;;;12.80;9.65;;;;;;;;;;5054329;28;20111;-74
2024/03/22 07:01:20;;;;;;;14.23;9.60;;;;;;;;;;5053982;28;20045;-74
2024/03/22 07:03:47;;;;;;;11.70;9.20;;;;;;;;;;5054271;28;20499;-74
2024/03/22 07:06:14;;;;;;;12.32;10.32;;;;;;;;;;5053853;28;20040;-74
2024/03/22 07:08:40;;;;;;;14.05;10.68;;;;;;;;;;5054105;28;20082;-74
2024/03/22 07:11:06;;;;;;;13.95;10.55;;;;;;;;;;5053727;28;20048;-73
2024/03/22 07:13:32;;;;;;;12.38;10.40;;;;;;;;;;5037459;28;20084;-73
2024/03/22 07:15:58;;;;;;;15.00;10.45;;;;;;;;;;5054011;28;20041;-73
2024/03/22 07:18:24;;;;;;;11.90;10.05;;;;;;;;;;5054787;28;20407;-73
2024/03/22 07:20:49;;;;;;;10.98;8.50;;;;;;;;;;5057251;28;20386;-74
2024/03/22 07:23:15;;;;;;;10.07;8.18;;;;;;;;;;5056836;28;20040;-73
2024/03/22 07:25:42;;;;;;;9.98;8.32;;;;;;;;;;5056885;28;20037;-74
2024/03/22 07:28:09;;;;;;;9.90;8.40;;;;;;;;;;5050993;28;20040;-74
2024/03/22 07:30:35;;;;;;;9.20;7.90;;;;;;;;;;5054734;28;20055;-74
2024/03/22 07:33:01;;;;;;;11.88;8.05;;;;;;;;;;5052153;28;20433;-74
2024/03/22 07:35:27;;;;;;;10.13;7.63;;;;;;;;;;5054710;28;20041;-74
2024/03/22 07:37:53;;;;;;;10.23;6.78;;;;;;;;;;5055273;28;20151;-74
2024/03/22 07:40:20;;;;;;;10.05;7.28;;;;;;;;;;5055137;28;20143;-74
2024/03/22 07:42:45;;;;;;;9.38;7.95;;;;;;;;;;5055317;28;20043;-74
2024/03/22 07:45:11;;;;;;;13.02;7.50;;;;;;;;;;5054722;28;20036;-74
2024/03/22 07:47:38;;;;;;;9.98;7.65;;;;;;;;;;5055173;28;20040;-74
2024/03/22 07:50:04;;;;;;;9.55;8.25;;;;;;;;;;5038750;28;20047;-74
2024/03/22 07:52:30;;;;;;;12.98;7.10;;;;;;;;;;5054551;28;20052;-74
2024/03/22 07:54:56;;;;;;;16.20;7.47;;;;;;;;;;5054906;28;20515;-74
2024/03/22 07:57:22;;;;;;;8.73;7.07;;;;;;;;;;5054715;28;20442;-74
2024/03/22 07:59:48;;;;;;;10.85;8.30;;;;;;;;;;5055088;28;20097;-73
2024/03/22 08:02:14;;;;;;;8.82;6.90;;;;;;;;;;5054314;28;20048;-74
2024/03/22 08:04:40;;;;;;;8.63;7.72;;;;;;;;;;5054726;28;20043;-73
2024/03/22 08:07:06;;;;;;;9.15;6.57;;;;;;;;;;5054122;28;20048;-73
2024/03/22 08:09:31;;;;;;;9.93;6.53;;;;;;;;;;5054821;28;20194;-74
2024/03/22 08:11:57;;;;;;;9.73;5.60;;;;;;;;;;5054709;28;20086;-74
2024/03/22 08:14:23;;;;;;;8.45;5.47;;;;;;;;;;5054007;28;20056;-73
2024/03/22 08:16:49;;;;;;;6.75;5.75;;;;;;;;;;5054603;28;20048;-73
2024/03/22 08:19:14;;;;;;;10.70;6.40;;;;;;;;;;5053580;28;20055;-74
2024/03/22 08:21:41;;;;;;;9.60;6.00;;;;;;;;;;5054443;28;20498;-74
2024/03/22 08:24:07;;;;;;;8.52;6.05;;;;;;;;;;5054202;28;20047;-74
2024/03/22 08:26:32;;;;;;;9.95;5.75;;;;;;;;;;5054152;28;20044;-74
2024/03/22 08:28:59;;;;;;;10.02;6.68;;;;;;;;;;5054345;28;20051;-74
2024/03/22 08:31:27;;;;;;;8.43;5.53;;;;;;;;;;5053806;28;20056;-73
2024/03/22 08:33:52;;;;;;;10.45;6.25;;;;;;;;;;5037989;28;20041;-74
2024/03/22 08:36:18;;;;;;;6.05;3.63;;;;;;;;;;5052882;28;20037;-74
2024/03/22 08:38:44;;;;;;;4.45;2.70;;;;;;;;;;5054938;28;20058;-73
2024/03/22 08:41:10;;;;;;;5.20;3.13;;;;;;;;;;5038596;28;20491;-73
2024/03/22 08:43:36;;;;;;;4.32;2.90;;;;;;;;;;5054705;28;20382;-74
2024/03/22 08:46:03;;;;;;;9.27;3.85;;;;;;;;;;5055639;28;20047;-75
2024/03/22 08:48:29;;;;;;;9.07;4.20;;;;;;;;;;5055223;28;20048;-75
2024/03/22 08:50:55;;;;;;;6.63;3.20;;;;;;;;;;5055238;28;20094;-76
2024/03/22 08:53:20;;;;;;;5.32;3.92;;;;;;;;;;5055025;28;20093;-75
2024/03/22 08:55:47;;;;;;;6.93;2.65;;;;;;;;;;5055518;28;20044;-76
2024/03/22 08:58:14;;;;;;;5.78;2.63;;;;;;;;;;5054914;28;20036;-76
2024/03/22 09:00:44;;;;;;;4.70;2.67;;;;;;;;;;5055478;28;20040;-76
2024/03/22 09:03:10;;;;;;;6.05;3.10;;;;;;;;;;5054699;28;20802;-75
2024/03/22 09:05:36;;;;;;;5.30;3.40;;;;;;;;;;5055064;28;20037;-75
2024/03/22 09:08:03;;;;;;;6.22;3.03;;;;;;;;;;5054890;28;20384;-75
2024/03/22 09:10:29;;;;;;;6.65;3.10;;;;;;;;;;5055014;28;20049;-73
2024/03/22 09:12:55;;;;;;;7.25;2.97;;;;;;;;;;5055198;28;20050;-77
2024/03/22 09:15:21;;;;;;;4.45;2.90;;;;;;;;;;5054633;28;20504;-74
2024/03/22 09:17:47;;;;;;;7.30;3.10;;;;;;;;;;5055024;28;20058;-73
2024/03/22 09:20:13;;;;;;;4.97;3.05;;;;;;;;;;5053392;28;20123;-73
2024/03/22 09:22:39;;;;;;;5.35;2.70;;;;;;;;;;5048083;28;20032;-73
2024/03/22 09:25:06;;;;;;;4.68;2.50;;;;;;;;;;5045449;28;20037;-73
2024/03/22 09:27:32;;;;;;;3.78;2.30;;;;;;;;;;5022449;28;20045;-74
2024/03/22 09:29:58;;;;;;;7.32;2.70;;;;;;;;;;5066237;28;20428;-73
2024/03/22 09:32:24;;;;;;;8.05;2.95;;;;;;;;;;5034963;28;20052;-74
2024/03/22 09:34:52;;;;;;;4.13;2.78;;;;;;;;;;5058320;28;20430;-74
2024/03/22 09:37:18;;;;;;;6.88;2.60;;;;;;;;;;5053221;28;20072;-73
2024/03/22 09:39:44;;;;;;;5.57;2.63;;;;;;;;;;5055268;28;20043;-73
2024/03/22 09:42:15;;;;;;;5.57;2.45;;;;;;;;;;5054400;28;20045;-73
2024/03/22 09:44:46;;;;;;;9.10;2.95;;;;;;;;;;5054857;28;20045;-73
2024/03/22 09:47:17;;;;;;;7.75;2.67;;;;;;;;;;5054376;28;20041;-74
2024/03/22 09:49:46;;;;;;;5.13;2.33;;;;;;;;;;5054904;28;20048;-73
2024/03/22 09:52:19;;;;;;;7.15;3.38;;;;;;;;;;5053028;28;20425;-73
2024/03/22 09:54:45;;;;;;;4.82;2.83;;;;;;;;;;5053513;28;20040;-75
2024/03/22 09:57:18;;;;;;;7.90;2.30;;;;;;;;;;5053696;28;20429;-74
2024/03/22 09:59:45;;;;;;;5.90;2.67;;;;;;;;;;5054723;28;20042;-74
2024/03/22 10:02:12;;;;;;;7.78;2.47;;;;;;;;;;5053125;28;20045;-73
2024/03/22 10:04:41;;;;;;;6.63;2.15;;;;;;;;;;5054890;28;20036;-73
2024/03/22 10:07:10;;;;;;;7.05;2.50;;;;;;;;;;5054162;28;20041;-74
2024/03/22 10:09:36;;;;;;;6.70;2.88;;;;;;;;;;5038268;28;20076;-73
2024/03/22 10:12:03;;;;;;;6.13;2.58;;;;;;;;;;5054783;28;20392;-73
2024/03/22 10:14:30;;;;;;;5.53;2.10;;;;;;;;;;5054365;28;20051;-73
2024/03/22 10:16:56;;;;;;;6.22;2.67;;;;;;;;;;5054354;28;20599;-72
2024/03/22 10:19:23;;;;;;;6.03;2.40;;;;;;;;;;5054455;28;20451;-73
2024/03/22 10:22:07;;;;;;;6.47;1.92;;;;;;;;;;5058398;28;20059;-73
2024/03/22 10:24:33;;;;;;;11.13;2.45;;;;;;;;;;5058400;28;20120;-73
2024/03/22 10:26:59;;;;;;;5.93;2.05;;;;;;;;;;5058149;28;20123;-73
2024/03/22 10:29:25;;;;;;;5.65;1.98;;;;;;;;;;5057958;28;20475;-73
2024/03/22 10:31:55;;;;;;;7.70;2.28;;;;;;;;;;5058270;28;20165;-73
2024/03/22 10:34:22;;;;;;;3.95;1.92;;;;;;;;;;5057486;28;20050;-73
2024/03/22 10:36:49;;;;;;;7.80;2.40;;;;;;;;;;5058160;28;20038;-73
2024/03/22 10:39:18;;;;;;;3.83;1.77;;;;;;;;;;5057861;28;20051;-74
2024/03/22 10:41:48;;;;;;;7.93;2.50;;;;;;;;;;5057919;28;20082;-72
2024/03/22 10:44:14;;;;;;;7.90;2.20;;;;;;;;;;5057574;28;20387;-74
2024/03/22 10:46:49;;;;;;;6.97;2.75;;;;;;;;;;5041545;28;20044;-73
2024/03/22 10:49:17;;;;;;;9.40;2.88;;;;;;;;;;5057458;28;20040;-74
2024/03/22 10:51:46;;;;;;;7.82;2.95;;;;;;;;;;5057935;28;20400;-73
2024/03/22 10:54:18;;;;;;;12.77;3.25;;;;;;;;;;5040726;28;20037;-74
2024/03/22 10:56:46;;;;;;;8.93;3.17;;;;;;;;;;5057916;28;20059;-73
2024/03/22 10:59:19;;;;;;;8.18;4.00;;;;;;;;;;5057477;28;20040;-73
2024/03/22 11:01:49;;;;;;;8.55;3.58;;;;;;;;;;5057684;28;20467;-74
2024/03/22 11:04:19;;;;;;;9.77;4.50;;;;;;;;;;5057274;28;20440;-74
2024/03/22 11:06:49;;;;;;;10.77;4.90;;;;;;;;;;5057810;28;20055;-74
2024/03/22 11:09:22;;;;;;;10.75;4.60;;;;;;;;;;5057179;28;20037;-74
2024/03/22 11:11:49;;;;;;;13.10;5.50;;;;;;;;;;5057424;28;20041;-73
2024/03/22 11:14:14;;;;;;;12.98;5.75;;;;;;;;;;5056908;28;20037;-73
2024/03/22 11:16:47;;;;;;;11.27;5.68;;;;;;;;;;5040965;28;20089;-73
2024/03/22 11:19:13;;;;;;;10.80;5.85;;;;;;;;;;5056821;28;20044;-73
2024/03/22 11:21:39;;;;;;;12.48;6.13;;;;;;;;;;5040694;28;20510;-73
2024/03/22 11:24:05;;;;;;;13.38;6.50;;;;;;;;;;5057091;28;20044;-73
2024/03/22 11:26:34;;;;;;;18.10;8.48;;;;;;;;;;5056933;28;20041;-73
2024/03/22 11:29:00;;;;;;;;;;;;;;;;;;5057343;28;20093;-74
2024/03/22 11:31:27;;;;;;;11.05;7.88;;;;;;;;;;5056060;28;20282;-73
2024/03/22 11:33:53;;;;;;;13.13;7.50;;;;;;;;;;5057051;28;20046;-74
2024/03/22 11:36:19;;;;;;;16.60;8.68;;;;;;;;;;5056460;28;20058;-73
2024/03/22 11:38:46;;;;;;;14.85;8.57;;;;;;;;;;5057113;28;20483;-74
2024/03/22 11:41:16;;;;;;;14.25;8.63;;;;;;;;;;5056391;28;20032;-73
2024/03/22 11:43:43;;;;;;;15.15;9.75;;;;;;;;;;5056932;28;20028;-73
2024/03/22 11:46:09;;;;;;;12.98;9.32;;;;;;;;;;5056360;28;20471;-74
2024/03/22 11:48:41;;;;;;;13.27;8.93;;;;;;;;;;5056567;28;20051;-73
2024/03/22 11:51:08;;;;;;;15.88;10.32;;;;;;;;;;5056527;28;20464;-73
2024/03/22 11:53:37;;;;;;;16.60;10.30;;;;;;;;;;5056332;28;20041;-74
2024/03/22 11:56:04;;;;;;;16.15;9.45;;;;;;;;;;5051016;28;20047;-74
2024/03/22 11:58:30;;;;;;;16.60;8.52;;;;;;;;;;5052989;28;20047;-74
2024/03/22 12:00:57;;;;;;;11.88;7.97;;;;;;;;;;5035059;28;20049;-74
2024/03/22 12:03:23;;;;;;;21.98;8.15;;;;;;;;;;5047377;28;20049;-74
2024/03/22 12:05:50;;;;;;;14.07;7.30;;;;;;;;;;5045040;28;20098;-74
2024/03/22 12:08:18;;;;;;;14.02;7.10;;;;;;;;;;5050713;28;20475;-76
2024/03/22 12:10:44;;;;;;;15.10;7.18;;;;;;;;;;5054834;28;20040;-74
2024/03/22 12:13:09;;;;;;;18.75;7.22;;;;;;;;;;5053904;28;20043;-74
2024/03/22 12:15:35;;;;;;;12.48;7.72;;;;;;;;;;5049234;28;20119;-73
2024/03/22 12:18:02;;;;;;;14.88;7.30;;;;;;;;;;5035081;28;20094;-73
2024/03/22 12:20:29;;;;;;;15.52;6.68;;;;;;;;;;5032805;28;20045;-73
2024/03/22 12:22:55;;;;;;;12.82;6.63;;;;;;;;;;5034015;28;20507;-72
2024/03/22 12:25:21;;;;;;;16.60;6.95;;;;;;;;;;5039007;28;20040;-74
2024/03/22 12:27:47;;;;;;;13.00;7.35;;;;;;;;;;5054185;28;20086;-73
2024/03/22 12:30:13;;;;;;;12.73;6.88;;;;;;;;;;5037476;28;20037;-74
2024/03/22 12:32:39;;;;;;;10.40;6.63;;;;;;;;;;5037825;28;20419;-73
2024/03/22 12:35:05;;;;;;;15.02;6.82;;;;;;;;;;5054153;28;20040;-73
2024/03/22 12:37:31;;;;;;;11.80;6.88;;;;;;;;;;5054191;28;20138;-74
2024/03/22 12:39:57;;;;;;;10.43;6.78;;;;;;;;;;5054300;28;20323;-73
2024/03/22 12:42:22;;;;;;;15.68;7.07;;;;;;;;;;5052940;28;20045;-74
2024/03/22 12:44:48;;;;;;;15.63;8.15;;;;;;;;;;5054083;28;20029;-73
2024/03/22 12:47:14;;;;;;;10.98;6.47;;;;;;;;;;5053832;28;20382;-74
2024/03/22 12:49:40;;;;;;;12.55;6.93;;;;;;;;;;5054007;28;20127;-74
2024/03/22 12:52:06;;;;;;;9.43;6.45;;;;;;;;;;5053837;28;20474;-74
2024/03/22 12:54:32;;;;;;;11.45;6.68;;;;;;;;;;5053620;28;20467;-73
2024/03/22 12:56:58;;;;;;;8.75;5.30;;;;;;;;;;5053960;28;20044;-74
2024/03/22 12:59:24;;;;;;;10.93;5.28;;;;;;;;;;5053551;28;20500;-73
2024/03/22 13:01:49;;;;;;;12.30;5.60;;;;;;;;;;5053813;28;20044;-74
2024/03/22 13:04:17;;;;;;;11.30;5.70;;;;;;;;;;5053440;28;20040;-73
2024/03/22 13:06:43;;;;;;;8.30;5.72;;;;;;;;;;5053539;28;20460;-74
2024/03/22 13:09:09;;;;;;;8.40;4.85;;;;;;;;;;5053343;28;20127;-74
2024/03/22 13:11:35;;;;;;;8.80;4.53;;;;;;;;;;5053563;28;20036;-74
2024/03/22 13:14:01;;;;;;;7.00;4.03;;;;;;;;;;5053816;28;20040;-74
2024/03/22 13:16:27;;;;;;;7.85;4.40;;;;;;;;;;5053089;28;20063;-74
2024/03/22 13:18:53;;;;;;;7.10;4.80;;;;;;;;;;5036569;28;20093;-74
2024/03/22 13:21:19;;;;;;;5.70;3.90;;;;;;;;;;5053158;28;20045;-74
2024/03/22 13:23:45;;;;;;;5.75;4.00;;;;;;;;;;5053600;28;20040;-73
2024/03/22 13:26:11;;;;;;;8.77;4.28;;;;;;;;;;5053083;28;20083;-74
2024/03/22 13:28:36;;;;;;;4.47;3.92;;;;;;;;;;5053181;28;20044;-74
2024/03/22 13:31:05;;;;;;;5.47;4.15;;;;;;;;;;5053625;28;20379;-73
2024/03/22 13:33:33;;;;;;;6.80;4.82;;;;;;;;;;5054896;28;20054;-74
2024/03/22 13:35:59;;;;;;;6.47;4.47;;;;;;;;;;5054883;28;20049;-74
2024/03/22 13:38:25;;;;;;;6.40;4.38;;;;;;;;;;5054387;28;20131;-73
2024/03/22 13:40:56;;;;;;;6.32;4.40;;;;;;;;;;5054851;28;20033;-74
2024/03/22 13:43:23;;;;;;;5.47;4.43;;;;;;;;;;5056338;28;20040;-74
2024/03/22 13:45:53;;;;;;;5.45;4.63;;;;;;;;;;5062691;28;20043;-73
2024/03/22 13:48:24;;;;;;;6.55;5.18;;;;;;;;;;5060812;28;20082;-74
2024/03/22 13:50:54;;;;;;;4.28;3.80;;;;;;;;;;5044336;28;20033;-74
2024/03/22 13:53:23;;;;;;;5.07;3.72;;;;;;;;;;5060260;28;20044;-73
2024/03/22 13:55:51;;;;;;;5.43;4.00;;;;;;;;;;5066543;28;20471;-74
2024/03/22 13:58:16;;;;;;;4.28;3.47;;;;;;;;;;5065987;28;20062;-73
2024/03/22 14:00:42;;;;;;;5.30;3.42;;;;;;;;;;5070499;28;20037;-74
2024/03/22 14:03:08;;;;;;;5.75;3.30;;;;;;;;;;5033396;28;20068;-73
2024/03/22 14:05:34;;;;;;;5.22;3.95;;;;;;;;;;5048786;28;20086;-73
2024/03/22 14:08:00;;;;;;;3.33;2.88;;;;;;;;;;5048918;28;20050;-73
2024/03/22 14:10:31;;;;;;;5.40;3.45;;;;;;;;;;5046319;28;20056;-73
2024/03/22 14:12:57;;;;;;;3.60;3.13;;;;;;;;;;5046631;28;20037;-73
2024/03/22 14:15:31;;;;;;;4.18;3.78;;;;;;;;;;5044144;28;20379;-73
2024/03/22 14:17:57;;;;;;;9.63;8.73;;;;;;;;;;5044668;28;20046;-73
2024/03/22 14:20:24;;;;;;;4.82;4.32;;;;;;;;;;5046586;28;20043;-73
2024/03/22 14:22:50;;;;;;;3.70;3.40;;;;;;;;;;5029384;28;20048;-73
2024/03/22 14:25:16;;;;;;;14.73;13.32;;;;;;;;;;5047435;28;20528;-73